createdAt,value
2022-07-29T00:00:01.467Z,95121.28
2022-07-29T00:02:29.096Z,95130.47
2022-07-29T00:04:56.167Z,95131.00
2022-07-29T00:07:23.098Z,95135.75
2022-07-29T00:09:51.001Z,95155.47
2022-07-29T00:12:25.496Z,95155.19
2022-07-29T00:14:56.703Z,95154.94
2022-07-29T00:17:24.860Z,95139.22
2022-07-29T00:19:52.380Z,95167.34
2022-07-29T00:22:21.093Z,95156.28
2022-07-29T00:24:51.066Z,95151.00
2022-07-29T00:27:18.460Z,95166.25
2022-07-29T00:29:45.711Z,95156.78
2022-07-29T00:32:13.119Z,95170.50
2022-07-29T00:34:59.029Z,95161.56
2022-07-29T00:37:26.016Z,95151.06
2022-07-29T00:39:53.118Z,95158.97
2022-07-29T00:42:20.362Z,95152.09
2022-07-29T00:44:47.268Z,95141.03
2022-07-29T00:47:14.278Z,95131.06
2022-07-29T00:49:42.885Z,95146.31
2022-07-29T00:52:11.532Z,95146.56
2022-07-29T00:54:44.442Z,95147.91
2022-07-29T00:57:12.842Z,95147.13
2022-07-29T00:59:40.126Z,95147.16
2022-07-29T01:02:07.075Z,95139.03
2022-07-29T01:04:34.861Z,95153.78
2022-07-29T01:07:05.468Z,95145.91
2022-07-29T01:09:45.774Z,95148.56
2022-07-29T01:12:17.933Z,95140.69
2022-07-29T01:14:45.949Z,95147.53
2022-07-29T01:17:52.592Z,95135.44
2022-07-29T01:20:32.897Z,95135.41
2022-07-29T01:23:24.553Z,95143.88
2022-07-29T01:26:29.430Z,95148.63
2022-07-29T01:29:11.741Z,95141.78
2022-07-29T01:31:59.301Z,95144.94
2022-07-29T01:34:55.800Z,95133.88
2022-07-29T01:37:29.817Z,95136.00
2022-07-29T01:39:58.498Z,95123.94
2022-07-29T01:42:45.178Z,95136.81
2022-07-29T01:45:17.951Z,95136.56
2022-07-29T01:47:54.293Z,95135.47
2022-07-29T01:50:27.759Z,95128.09
2022-07-29T01:52:59.990Z,95125.47
2022-07-29T01:55:32.364Z,95127.06
2022-07-29T01:58:02.225Z,95124.94
2022-07-29T02:00:33.161Z,95112.88
2022-07-29T02:03:08.605Z,95109.69
2022-07-29T02:05:39.167Z,95107.09
2022-07-29T02:08:08.088Z,95109.69
2022-07-29T02:10:37.050Z,95114.41
2022-07-29T02:13:05.388Z,95121.78
2022-07-29T02:15:35.415Z,95118.91
2022-07-29T02:18:10.671Z,95125.47
2022-07-29T02:20:41.143Z,95127.56
2022-07-29T02:23:11.254Z,95114.41
2022-07-29T02:25:38.705Z,95111.50
2022-07-29T02:28:08.639Z,95112.53
2022-07-29T02:30:40.156Z,95116.97
2022-07-29T02:33:08.901Z,95102.25
2022-07-29T02:35:35.929Z,95114.88
2022-07-29T02:38:22.925Z,95105.41
2022-07-29T02:40:51.932Z,95112.50
2022-07-29T02:43:21.256Z,95100.13
2022-07-29T02:45:52.741Z,95104.34
2022-07-29T02:48:24.426Z,95106.44
2022-07-29T02:51:00.681Z,95105.41
2022-07-29T02:53:29.057Z,95101.47
2022-07-29T02:56:09.110Z,95084.91
2022-07-29T02:58:41.658Z,95102.25
2022-07-29T03:01:21.658Z,95105.16
2022-07-29T03:03:50.622Z,95107.53
2022-07-29T03:06:28.726Z,95100.72
2022-07-29T03:09:12.603Z,95099.13
2022-07-29T03:11:45.899Z,95098.34
2022-07-29T03:14:20.478Z,95098.59
2022-07-29T03:16:48.703Z,95083.31
2022-07-29T03:19:16.118Z,95084.34
2022-07-29T03:21:42.998Z,95098.53
2022-07-29T03:24:11.216Z,95099.84
2022-07-29T03:26:38.622Z,95094.84
2022-07-29T03:29:05.590Z,95086.69
2022-07-29T03:31:33.576Z,95075.88
2022-07-29T03:34:00.680Z,95100.03
2022-07-29T03:36:28.034Z,95102.63
2022-07-29T03:38:55.679Z,95097.63
2022-07-29T03:41:25.661Z,95092.59
2022-07-29T03:43:53.019Z,95097.31
2022-07-29T03:46:24.536Z,95086.78
2022-07-29T03:48:57.611Z,95085.19
2022-07-29T03:51:33.162Z,95097.81
2022-07-29T03:54:09.695Z,95103.63
2022-07-29T03:56:41.143Z,95098.88
2022-07-29T03:59:09.047Z,95111.78
2022-07-29T04:01:37.643Z,95107.34
2022-07-29T04:04:05.765Z,95112.59
2022-07-29T04:06:42.915Z,95094.72
2022-07-29T04:09:11.108Z,95106.84
2022-07-29T04:11:59.169Z,95099.97
2022-07-29T04:14:27.475Z,95101.56
2022-07-29T04:16:54.382Z,95123.06
2022-07-29T04:19:21.557Z,95106.97
2022-07-29T04:21:48.377Z,95116.97
2022-07-29T04:24:15.786Z,95121.91
2022-07-29T04:26:43.631Z,95116.34
2022-07-29T04:29:10.584Z,95122.09
2022-07-29T04:31:38.050Z,95106.84
2022-07-29T04:34:05.101Z,95114.94
2022-07-29T04:36:32.332Z,95126.75
2022-07-29T04:38:59.573Z,95126.50
2022-07-29T04:41:32.755Z,95125.47
2022-07-29T04:44:02.190Z,95133.94
2022-07-29T04:46:29.327Z,95126.84
2022-07-29T04:48:56.433Z,95132.88
2022-07-29T04:51:23.318Z,95126.56
2022-07-29T04:53:50.090Z,95126.50
2022-07-29T04:56:16.862Z,95129.13
2022-07-29T04:58:43.746Z,95131.50
2022-07-29T05:01:10.750Z,95138.59
2022-07-29T05:03:37.626Z,95140.41
2022-07-29T05:06:04.521Z,95141.72
2022-07-29T05:08:31.353Z,95137.97
2022-07-29T05:10:58.160Z,95125.88
2022-07-29T05:13:45.898Z,95142.63
2022-07-29T05:16:14.370Z,95131.50
2022-07-29T05:18:41.837Z,95140.84
2022-07-29T05:21:08.640Z,95142.91
2022-07-29T05:23:35.457Z,95152.69
2022-07-29T05:26:02.806Z,95158.38
2022-07-29T05:28:29.695Z,95153.38
2022-07-29T05:30:57.296Z,95149.81
2022-07-29T05:33:34.246Z,95158.78
2022-07-29T05:36:03.360Z,95159.28
2022-07-29T05:38:30.175Z,95168.53
2022-07-29T05:41:00.883Z,95154.06
2022-07-29T05:43:29.440Z,95169.44
2022-07-29T05:45:57.260Z,95139.25
2022-07-29T05:48:27.957Z,95145.88
2022-07-29T05:50:55.668Z,95170.78
2022-07-29T05:53:22.964Z,95169.28
2022-07-29T05:55:50.954Z,95168.50
2022-07-29T05:58:17.879Z,95167.75
2022-07-29T06:00:44.997Z,95164.31
2022-07-29T06:03:12.346Z,95171.50
2022-07-29T06:05:39.136Z,95158.09
2022-07-29T06:08:09.103Z,95139.47
2022-07-29T06:10:36.619Z,95168.44
2022-07-29T06:13:04.003Z,95166.56
2022-07-29T06:15:30.806Z,95172.91
2022-07-29T06:17:59.043Z,95174.94
2022-07-29T06:20:31.868Z,95151.47
2022-07-29T06:22:59.976Z,95176.22
2022-07-29T06:25:30.274Z,95176.59
2022-07-29T06:27:58.056Z,95167.78
2022-07-29T06:30:25.126Z,95172.84
2022-07-29T06:32:52.259Z,95161.59
2022-07-29T06:35:40.956Z,95177.53
2022-07-29T06:38:16.006Z,95165.53
2022-07-29T06:41:06.889Z,95170.97
2022-07-29T06:43:51.785Z,95167.91
2022-07-29T06:46:23.133Z,95169.47
2022-07-29T06:48:50.875Z,95163.59
2022-07-29T06:51:22.274Z,95162.88
2022-07-29T06:54:00.422Z,95167.75
2022-07-29T06:56:39.625Z,95161.88
2022-07-29T06:59:11.945Z,95158.72
2022-07-29T07:01:40.960Z,95164.69
2022-07-29T07:04:09.810Z,95171.25
2022-07-29T07:06:37.270Z,95161.84
2022-07-29T07:09:04.664Z,95164.31
2022-07-29T07:11:31.699Z,95162.91
2022-07-29T07:14:03.096Z,95170.41
2022-07-29T07:16:30.769Z,95169.13
2022-07-29T07:18:57.732Z,95173.94
2022-07-29T07:21:24.553Z,95183.63
2022-07-29T07:23:51.364Z,95175.91
2022-07-29T07:26:18.164Z,95177.09
2022-07-29T07:28:45.012Z,95172.06
2022-07-29T07:31:12.384Z,95183.16
2022-07-29T07:33:39.537Z,95166.09
2022-07-29T07:36:06.381Z,95175.47
2022-07-29T07:38:33.389Z,95168.97
2022-07-29T07:41:00.323Z,95173.72
2022-07-29T07:43:27.129Z,95163.16
2022-07-29T07:45:54.074Z,95163.56
2022-07-29T07:48:21.505Z,95145.28
2022-07-29T07:50:50.377Z,95150.84
2022-07-29T07:53:17.726Z,95154.59
2022-07-29T07:56:10.485Z,95156.84
2022-07-29T07:58:32.227Z,95156.19
2022-07-29T08:00:59.158Z,95156.44
2022-07-29T08:03:26.118Z,95155.66
2022-07-29T08:05:53.108Z,95156.91
2022-07-29T08:08:19.953Z,95149.53
2022-07-29T08:10:53.037Z,95162.94
2022-07-29T08:13:22.116Z,95162.25
2022-07-29T08:15:58.896Z,95163.38
2022-07-29T08:18:27.665Z,95160.03
2022-07-29T08:20:55.173Z,95167.16
2022-07-29T08:23:23.775Z,95168.22
2022-07-29T08:25:52.337Z,95155.47
2022-07-29T08:28:22.115Z,95166.38
2022-07-29T08:30:53.279Z,95155.63
2022-07-29T08:33:20.169Z,95157.84
2022-07-29T08:35:47.140Z,95156.00
2022-07-29T08:38:14.007Z,95150.53
2022-07-29T08:40:41.128Z,95142.91
2022-07-29T08:43:09.599Z,95148.63
2022-07-29T08:45:47.736Z,95149.88
2022-07-29T08:48:23.684Z,95143.44
2022-07-29T08:50:55.700Z,95138.75
2022-07-29T08:53:27.451Z,95156.22
2022-07-29T08:55:54.633Z,95147.09
2022-07-29T08:58:24.928Z,95151.25
2022-07-29T09:00:56.250Z,95154.63
2022-07-29T09:03:30.582Z,95152.38
2022-07-29T09:05:58.832Z,95149.59
2022-07-29T09:08:26.451Z,95154.81
2022-07-29T09:10:53.567Z,95150.22
2022-07-29T09:13:20.460Z,95153.53
2022-07-29T09:15:47.278Z,95155.66
2022-07-29T09:18:35.851Z,95151.28
2022-07-29T09:21:22.374Z,95152.88
2022-07-29T09:24:09.516Z,95157.25
2022-07-29T09:26:47.298Z,95153.00
2022-07-29T09:29:17.599Z,95154.16
2022-07-29T09:31:47.791Z,95144.94
2022-07-29T09:34:17.429Z,95158.75
2022-07-29T09:36:47.055Z,95154.09
2022-07-29T09:39:15.664Z,95155.69
2022-07-29T09:41:55.170Z,95146.00
2022-07-29T09:44:24.042Z,95151.56
2022-07-29T09:46:59.817Z,95155.50
2022-07-29T09:49:27.434Z,95156.00
2022-07-29T09:52:04.419Z,95155.28
2022-07-29T09:54:37.659Z,95145.53
2022-07-29T09:57:13.658Z,95146.56
2022-07-29T09:59:50.142Z,95146.38
2022-07-29T10:02:23.507Z,95144.97
2022-07-29T10:04:50.970Z,95127.47
2022-07-29T10:07:17.763Z,95129.25
2022-07-29T10:09:55.999Z,95128.38
2022-07-29T10:12:24.270Z,95141.72
2022-07-29T10:14:52.718Z,95129.00
2022-07-29T10:17:20.292Z,95126.34
2022-07-29T10:19:48.255Z,95126.72
2022-07-29T10:22:26.326Z,95114.75
2022-07-29T10:25:02.757Z,95123.47
2022-07-29T10:27:32.967Z,95101.22
2022-07-29T10:29:59.933Z,95110.50
2022-07-29T10:32:40.093Z,95114.38
2022-07-29T10:35:19.087Z,95106.31
2022-07-29T10:37:58.708Z,95105.28
2022-07-29T10:41:12.399Z,95110.22
2022-07-29T10:43:51.442Z,95084.09
2022-07-29T10:46:19.578Z,95100.59
2022-07-29T10:49:19.860Z,95099.84
2022-07-29T10:52:06.165Z,95098.72
2022-07-29T10:54:42.324Z,95094.63
2022-07-29T10:57:53.324Z,95093.88
2022-07-29T11:00:16.876Z,95094.69
2022-07-29T11:02:45.978Z,95085.44
2022-07-29T11:05:18.878Z,95087.00
2022-07-29T11:11:29.688Z,95085.84
2022-07-29T11:13:57.241Z,95075.38
2022-07-29T11:16:25.002Z,95083.91
2022-07-29T11:19:14.249Z,95080.03
2022-07-29T11:21:55.127Z,95083.13
2022-07-29T11:24:33.307Z,95080.41
2022-07-29T11:27:13.447Z,95070.72
2022-07-29T11:29:43.112Z,95064.88
2022-07-29T11:32:15.709Z,95063.63
2022-07-29T11:34:45.352Z,95058.22
2022-07-29T11:37:13.707Z,95060.09
2022-07-29T11:39:47.591Z,95060.53
2022-07-29T11:42:32.138Z,95059.53
2022-07-29T11:48:29.247Z,95058.19
2022-07-29T11:50:54.173Z,95053.41
2022-07-29T11:53:21.794Z,95051.00
2022-07-29T11:55:56.366Z,95057.75
2022-07-29T11:58:26.281Z,95049.28
2022-07-29T12:00:55.508Z,95033.78
2022-07-29T12:03:33.562Z,95056.09
2022-07-29T12:06:02.672Z,95057.13
2022-07-29T12:08:30.624Z,95057.81
2022-07-29T12:10:58.440Z,95049.03
2022-07-29T12:13:37.833Z,95051.06
2022-07-29T12:16:05.795Z,95049.44
2022-07-29T12:18:32.861Z,95054.22
2022-07-29T12:21:04.990Z,95032.81
2022-07-29T12:23:34.802Z,95056.56
2022-07-29T12:26:07.510Z,95046.69
2022-07-29T12:28:39.797Z,95042.16
2022-07-29T12:31:14.045Z,95039.69
2022-07-29T12:33:41.240Z,95035.56
2022-07-29T12:36:14.285Z,95039.94
2022-07-29T12:38:45.644Z,95030.69
2022-07-29T12:41:12.730Z,95036.72
2022-07-29T12:43:53.295Z,95030.63
2022-07-29T12:46:20.166Z,95036.28
2022-07-29T12:48:52.170Z,95032.28
2022-07-29T12:51:18.922Z,95026.50
2022-07-29T12:54:14.344Z,95035.59
2022-07-29T12:56:44.343Z,95031.47
2022-07-29T12:59:14.609Z,95030.88
2022-07-29T13:01:41.504Z,95016.19
2022-07-29T13:04:08.534Z,95024.09
2022-07-29T13:06:45.944Z,95027.31
2022-07-29T13:09:23.504Z,94995.81
2022-07-29T13:11:54.573Z,95008.72
2022-07-29T13:14:39.025Z,95007.19
2022-07-29T13:17:11.719Z,95002.59
2022-07-29T13:19:46.732Z,94992.59
2022-07-29T13:22:22.231Z,94989.56
2022-07-29T13:24:53.043Z,94993.63
2022-07-29T13:27:21.734Z,94987.91
2022-07-29T13:29:50.647Z,94979.66
2022-07-29T13:32:17.899Z,94994.66
2022-07-29T13:34:44.794Z,94982.41
2022-07-29T13:37:12.140Z,94984.91
2022-07-29T13:39:39.103Z,94986.63
2022-07-29T13:42:10.752Z,94975.63
2022-07-29T13:44:38.262Z,94974.69
2022-07-29T13:47:05.348Z,94974.44
2022-07-29T13:49:32.289Z,94961.28
2022-07-29T13:51:59.587Z,94977.69
2022-07-29T13:54:26.799Z,94964.44
2022-07-29T13:56:54.276Z,94962.84
2022-07-29T13:59:21.306Z,94958.16
2022-07-29T14:01:48.938Z,94962.25
2022-07-29T14:04:16.466Z,94948.56
2022-07-29T14:06:43.544Z,94967.09
2022-07-29T14:09:10.644Z,94971.69
2022-07-29T14:11:39.585Z,94967.03
2022-07-29T14:14:06.730Z,94984.34
2022-07-29T14:16:33.966Z,94970.47
2022-07-29T14:19:01.269Z,94985.44
2022-07-29T14:21:28.157Z,94976.72
2022-07-29T14:23:55.676Z,94976.47
2022-07-29T14:26:24.291Z,94972.19
2022-07-29T14:28:51.409Z,94967.19
2022-07-29T14:31:18.756Z,94977.16
2022-07-29T14:33:46.212Z,94973.22
2022-07-29T14:36:16.609Z,94977.00
2022-07-29T14:38:43.479Z,94973.06
2022-07-29T14:41:10.318Z,94976.28
2022-07-29T14:43:37.155Z,94967.47
2022-07-29T14:46:08.188Z,94964.31
2022-07-29T14:48:36.040Z,94975.38
2022-07-29T14:51:04.864Z,94966.44
2022-07-29T14:53:32.806Z,94972.34
2022-07-29T14:56:15.043Z,94974.94
2022-07-29T14:58:51.784Z,94976.19
2022-07-29T15:01:19.117Z,94976.75
2022-07-29T15:03:46.882Z,94972.75
2022-07-29T15:06:14.257Z,94988.69
2022-07-29T15:08:41.141Z,94970.78
2022-07-29T15:11:07.972Z,94982.75
2022-07-29T15:13:35.100Z,94968.94
2022-07-29T15:16:02.036Z,94979.69
2022-07-29T15:18:28.912Z,94967.94
2022-07-29T15:20:55.752Z,94968.13
2022-07-29T15:23:22.544Z,94962.09
2022-07-29T15:25:49.389Z,94948.78
2022-07-29T15:28:16.435Z,94961.94
2022-07-29T15:30:43.485Z,94965.78
2022-07-29T15:33:10.813Z,94960.63
2022-07-29T15:35:40.261Z,94964.44
2022-07-29T15:38:08.495Z,94938.34
2022-07-29T15:40:35.374Z,94958.94
2022-07-29T15:43:06.746Z,94954.81
2022-07-29T15:45:40.924Z,94950.88
2022-07-29T15:48:14.582Z,94955.13
2022-07-29T15:50:41.855Z,94954.31
2022-07-29T15:53:08.652Z,94957.19
2022-07-29T15:55:35.446Z,94950.78
2022-07-29T15:58:02.230Z,94950.50
2022-07-29T16:00:29.332Z,94959.25
2022-07-29T16:02:56.107Z,94959.75
2022-07-29T16:05:23.680Z,94949.09
2022-07-29T16:07:50.458Z,94948.28
2022-07-29T16:10:17.253Z,94944.97
2022-07-29T16:12:44.011Z,94943.06
2022-07-29T16:15:11.034Z,94941.53
2022-07-29T16:17:39.283Z,94942.25
2022-07-29T16:20:06.818Z,94955.22
2022-07-29T16:22:33.602Z,94951.50
2022-07-29T16:25:00.528Z,94956.13
2022-07-29T16:27:37.525Z,94962.81
2022-07-29T16:30:05.902Z,94963.13
2022-07-29T16:32:32.680Z,94961.84
2022-07-29T16:35:02.100Z,94958.38
2022-07-29T16:37:35.498Z,94969.38
2022-07-29T16:40:03.646Z,94966.25
2022-07-29T16:42:46.025Z,94972.31
2022-07-29T16:45:13.881Z,94965.13
2022-07-29T16:47:40.891Z,94975.03
2022-07-29T16:50:08.946Z,94972.09
2022-07-29T16:52:37.563Z,94966.84
2022-07-29T16:55:04.648Z,94966.72
2022-07-29T16:57:31.460Z,94966.84
2022-07-29T16:59:58.198Z,94965.34
2022-07-29T17:02:25.117Z,94956.31
2022-07-29T17:04:52.011Z,94961.38
2022-07-29T17:07:19.165Z,94955.28
2022-07-29T17:09:45.956Z,94957.22
2022-07-29T17:12:12.828Z,94954.41
2022-07-29T17:14:39.568Z,94956.13
2022-07-29T17:17:12.273Z,94953.22
2022-07-29T17:19:40.647Z,94947.09
2022-07-29T17:22:13.056Z,94961.06
2022-07-29T17:24:45.474Z,94948.78
2022-07-29T17:27:12.811Z,94963.69
2022-07-29T17:29:39.657Z,94958.38
2022-07-29T17:32:07.937Z,94959.81
2022-07-29T17:34:38.983Z,94968.63
2022-07-29T17:37:07.553Z,94965.78
2022-07-29T17:39:35.689Z,94965.34
2022-07-29T17:42:04.032Z,94965.25
2022-07-29T17:44:31.058Z,94951.91
2022-07-29T17:46:59.783Z,94960.13
2022-07-29T17:49:28.156Z,94956.50
2022-07-29T17:51:58.964Z,94971.16
2022-07-29T17:54:27.818Z,94974.59
2022-07-29T17:56:54.596Z,94973.31
2022-07-29T17:59:22.623Z,94970.03
2022-07-29T18:01:49.539Z,94973.53
2022-07-29T18:04:20.238Z,94979.09
2022-07-29T18:06:47.355Z,94972.22
2022-07-29T18:09:14.342Z,94972.44
2022-07-29T18:11:44.438Z,94976.72
2022-07-29T18:14:12.798Z,94981.84
2022-07-29T18:16:39.701Z,94975.38
2022-07-29T18:19:07.069Z,94975.84
2022-07-29T18:21:41.120Z,94977.34
2022-07-29T18:24:22.785Z,94980.88
2022-07-29T18:26:49.668Z,94987.78
2022-07-29T18:29:16.634Z,94989.56
2022-07-29T18:31:43.429Z,94995.31
2022-07-29T18:34:10.249Z,94993.50
2022-07-29T18:36:37.136Z,94998.56
2022-07-29T18:39:04.247Z,94982.16
2022-07-29T18:41:31.476Z,95000.53
2022-07-29T18:43:58.347Z,94998.75
2022-07-29T18:46:25.538Z,94995.81
2022-07-29T18:48:52.565Z,94994.31
2022-07-29T18:51:19.528Z,94985.47
2022-07-29T18:53:46.356Z,94999.25
2022-07-29T18:56:13.385Z,94995.75
2022-07-29T18:58:40.221Z,95006.75
2022-07-29T19:01:07.116Z,95012.91
2022-07-29T19:03:33.927Z,95003.25
2022-07-29T19:06:01.121Z,95006.75
2022-07-29T19:08:27.949Z,94997.09
2022-07-29T19:10:54.774Z,95012.31
2022-07-29T19:13:21.664Z,94993.59
2022-07-29T19:15:48.635Z,95024.91
2022-07-29T19:18:15.501Z,95013.19
2022-07-29T19:20:42.395Z,95014.59
2022-07-29T19:23:09.384Z,95015.56
2022-07-29T19:25:37.453Z,95008.84
2022-07-29T19:28:20.305Z,95018.88
2022-07-29T19:30:47.219Z,95005.88
2022-07-29T19:33:17.435Z,95026.41
2022-07-29T19:35:45.305Z,95022.16
2022-07-29T19:38:13.020Z,95023.25
2022-07-29T19:40:40.572Z,95027.00
2022-07-29T19:43:49.747Z,95027.63
2022-07-29T19:45:54.434Z,95035.19
2022-07-29T19:48:21.372Z,95029.06
2022-07-29T19:50:48.194Z,95030.50
2022-07-29T19:53:15.307Z,95030.50
2022-07-29T19:55:42.555Z,95019.69
2022-07-29T19:58:09.402Z,95018.75
2022-07-29T20:00:36.614Z,95020.19
2022-07-29T20:03:06.981Z,95019.25
2022-07-29T20:05:34.100Z,95020.50
2022-07-29T20:08:04.941Z,95010.22
2022-07-29T20:10:32.726Z,95028.03
2022-07-29T20:12:59.651Z,95034.66
2022-07-29T20:15:26.724Z,95022.41
2022-07-29T20:17:57.125Z,95025.75
2022-07-29T20:20:25.371Z,95010.25
2022-07-29T20:22:53.684Z,95031.53
2022-07-29T20:25:20.601Z,95029.66
2022-07-29T20:27:49.691Z,95030.31
2022-07-29T20:30:16.606Z,95027.47
2022-07-29T20:32:44.940Z,95031.84
2022-07-29T20:35:13.412Z,95026.69
2022-07-29T20:37:52.175Z,95042.50
2022-07-29T20:40:25.324Z,95035.75
2022-07-29T20:42:52.878Z,95036.69
2022-07-29T20:45:20.186Z,95040.28
2022-07-29T20:47:47.147Z,95039.03
2022-07-29T20:50:14.219Z,95042.75
2022-07-29T20:52:41.416Z,95045.56
2022-07-29T20:55:09.095Z,95050.88
2022-07-29T20:57:39.178Z,95045.22
2022-07-29T21:00:07.447Z,95052.13
2022-07-29T21:02:34.595Z,95058.53
2022-07-29T21:05:01.484Z,95051.78
2022-07-29T21:07:28.337Z,95051.47
2022-07-29T21:09:55.144Z,95049.72
2022-07-29T21:12:22.679Z,95042.88
2022-07-29T21:14:49.854Z,95052.91
2022-07-29T21:17:18.747Z,95042.44
2022-07-29T21:19:48.318Z,95037.75
2022-07-29T21:22:16.164Z,95040.25
2022-07-29T21:24:44.975Z,95041.22
2022-07-29T21:27:30.433Z,95037.75
2022-07-29T21:29:57.275Z,95044.72
2022-07-29T21:32:29.949Z,95046.66
2022-07-29T21:34:58.088Z,95039.31
2022-07-29T21:37:25.333Z,95042.44
2022-07-29T21:39:52.122Z,95052.28
2022-07-29T21:42:19.332Z,95026.25
2022-07-29T21:44:46.294Z,95054.28
2022-07-29T21:47:13.125Z,95060.81
2022-07-29T21:49:40.009Z,95058.50
2022-07-29T21:52:08.172Z,95056.75
2022-07-29T21:54:36.854Z,95028.91
2022-07-29T21:57:04.821Z,95046.44
2022-07-29T21:59:31.999Z,95050.50
2022-07-29T22:02:01.174Z,95034.22
2022-07-29T22:04:29.112Z,95049.09
2022-07-29T22:06:57.131Z,95044.25
2022-07-29T22:09:25.177Z,95044.69
2022-07-29T22:11:52.035Z,95037.63
2022-07-29T22:14:18.846Z,95031.47
2022-07-29T22:16:47.249Z,95044.94
2022-07-29T22:19:14.506Z,95034.75
2022-07-29T22:21:42.370Z,95045.19
2022-07-29T22:24:10.443Z,95032.78
2022-07-29T22:26:38.304Z,95044.16
2022-07-29T22:29:05.381Z,95033.63
2022-07-29T22:31:32.207Z,95035.81
2022-07-29T22:33:59.199Z,95032.28
2022-07-29T22:36:26.527Z,95050.41
2022-07-29T22:38:53.359Z,95037.06
2022-07-29T22:41:21.287Z,95054.16
2022-07-29T22:43:48.356Z,95055.34
2022-07-29T22:46:15.317Z,95044.13
2022-07-29T22:48:42.671Z,95054.63
2022-07-29T22:51:09.639Z,95041.09
2022-07-29T22:53:37.017Z,95023.50
2022-07-29T22:56:04.155Z,95037.06
2022-07-29T22:58:31.017Z,95053.16
2022-07-29T23:00:57.948Z,95046.91
2022-07-29T23:03:25.039Z,95048.06
2022-07-29T23:05:51.996Z,95038.63
2022-07-29T23:08:20.223Z,95054.56
2022-07-29T23:10:47.618Z,95058.13
2022-07-29T23:13:14.779Z,95061.47
2022-07-29T23:15:42.103Z,95042.44
2022-07-29T23:18:10.620Z,95058.13
2022-07-29T23:20:37.485Z,95055.59
2022-07-29T23:23:04.596Z,95057.38
2022-07-29T23:25:31.518Z,95051.88
2022-07-29T23:27:58.380Z,95041.88
2022-07-29T23:30:25.622Z,95056.59
2022-07-29T23:32:52.680Z,95053.31
2022-07-29T23:35:19.899Z,95043.03
2022-07-29T23:37:46.865Z,95054.03
2022-07-29T23:40:15.052Z,95057.25
2022-07-29T23:42:42.776Z,95060.06
2022-07-29T23:45:11.362Z,95057.50
2022-07-29T23:47:38.373Z,95062.22
2022-07-29T23:50:06.958Z,95061.75
2022-07-29T23:52:33.884Z,95046.03
2022-07-29T23:55:36.331Z,95064.00
2022-07-29T23:57:51.111Z,95052.41
